Time;durP1;ratioP1;P1;durP2;ratioP2;P2;SDS_P1;SDS_P2;PMS_P1;PMS_P2;Temp;Humidity;BMP_temperature;BMP_pressure;BME280_temperature;BME280_humidity;BME280_pressure;Samples;Min_cycle;Max_cycle;Signal;HPM_P1;HPM_P2
2021/11/18 00:00:42;;;;;;;36.13;23.67;;;;;;;-1.17;76.86;100606.09;1658733;85;20983;-74
2021/11/18 00:03:09;;;;;;;37.30;21.77;;;;;;;-1.17;76.95;100607.41;1677241;85;21066;-75
2021/11/18 00:05:35;;;;;;;41.70;24.33;;;;;;;-1.16;76.93;100606.44;1676466;85;21984;-77
2021/11/18 00:08:02;;;;;;;46.17;22.83;;;;;;;-1.15;76.95;100602.00;1653103;85;21025;-74
2021/11/18 00:10:40;;;;;;;37.50;24.13;;;;;;;-1.13;76.88;100600.02;1654276;85;21515;-77
2021/11/18 00:13:11;;;;;;;38.70;24.33;;;;;;;-1.14;76.83;100603.14;1677944;85;20994;-79
2021/11/18 00:15:37;;;;;;;47.20;24.97;;;;;;;-1.15;76.78;100599.36;1653868;85;21010;-79
2021/11/18 00:18:07;;;;;;;41.53;21.37;;;;;;;-1.15;76.84;100605.95;1677540;85;21480;-80
2021/11/18 00:20:39;;;;;;;40.13;24.67;;;;;;;-1.13;76.81;100606.61;1677416;85;21730;-79
2021/11/18 00:23:05;;;;;;;38.67;24.50;;;;;;;-1.15;76.82;100613.87;1677302;85;21027;-80
2021/11/18 00:25:32;;;;;;;36.83;23.67;;;;;;;-1.15;76.92;100607.27;1677397;85;21023;-79
2021/11/18 00:27:58;;;;;;;36.47;22.70;;;;;;;-1.12;76.80;100607.79;1654163;85;21079;-76
2021/11/18 00:30:26;;;;;;;44.47;26.70;;;;;;;-1.14;76.78;100601.83;1661104;86;21130;-79
2021/11/18 00:32:52;;;;;;;36.47;21.07;;;;;;;-1.17;76.85;100602.14;1660166;86;21056;-77
2021/11/18 00:35:22;;;;;;;50.67;23.60;;;;;;;-1.17;76.86;100602.14;1659822;86;21008;-75
2021/11/18 00:37:49;;;;;;;37.00;21.87;;;;;;;-1.18;76.85;100603.59;1662894;86;21088;-85
2021/11/18 00:40:21;;;;;;;36.23;21.60;;;;;;;-1.20;76.88;100598.46;1696997;83;21040;-82
2021/11/18 00:42:50;;;;;;;36.42;21.15;;;;;;;-1.22;76.93;100599.13;1643371;86;21716;-76
2021/11/18 00:45:22;;;;;;;41.33;24.73;;;;;;;-1.25;76.93;100594.65;1645911;87;22317;-82
2021/11/18 00:47:51;;;;;;;43.30;24.97;;;;;;;-1.26;77.09;100594.30;1646480;87;21083;-79
2021/11/18 00:50:22;;;;;;;43.23;24.27;;;;;;;-1.28;77.13;100594.44;1644894;85;21160;-79
2021/11/18 00:52:48;;;;;;;38.27;23.70;;;;;;;-1.28;77.16;100593.13;1656818;85;21011;-81
2021/11/18 00:55:15;;;;;;;43.47;24.77;;;;;;;-1.27;77.23;100596.11;1682692;84;21126;-81
2021/11/18 00:57:43;;;;;;;39.17;21.50;;;;;;;-1.27;77.23;100599.23;1682633;85;21020;-80
2021/11/18 01:00:23;;;;;;;39.53;23.50;;;;;;;-1.27;77.28;100605.83;1652778;85;21038;-80
2021/11/18 01:02:49;;;;;;;38.30;23.70;;;;;;;-1.28;77.30;100601.03;1679351;85;21565;-80
2021/11/18 01:05:18;;;;;;;45.10;22.57;;;;;;;-1.30;77.29;100604.83;1653406;85;21495;-79
2021/11/18 01:07:44;;;;;;;40.23;23.80;;;;;;;-1.36;77.33;100598.34;1630365;85;21113;-82
2021/11/18 01:10:14;;;;;;;41.00;26.43;;;;;;;-1.45;77.46;100591.33;1653403;85;21559;-81
2021/11/18 01:12:41;;;;;;;38.20;25.63;;;;;;;-1.52;77.64;100592.41;1652336;85;21031;-78
2021/11/18 01:15:08;;;;;;;39.93;23.43;;;;;;;-1.52;77.90;100581.02;1652470;85;21075;-78
2021/11/18 01:17:35;;;;;;;45.63;25.70;;;;;;;-1.60;77.93;100576.51;1652555;85;21580;-77
2021/11/18 01:20:05;;;;;;;35.30;22.63;;;;;;;-1.63;78.18;100566.24;1652296;85;21130;-75
2021/11/18 01:22:31;;;;;;;44.13;27.40;;;;;;;-1.62;78.24;100584.22;1652769;85;20967;-77
2021/11/18 01:24:58;;;;;;;40.87;25.70;;;;;;;-1.61;78.31;100582.76;1652207;85;21038;-84
2021/11/18 01:27:26;;;;;;;43.33;25.57;;;;;;;-1.58;78.32;100573.73;1652597;85;21037;-80
2021/11/18 01:29:54;;;;;;;40.43;24.47;;;;;;;-1.55;78.33;100575.58;1678695;85;21047;-81
2021/11/18 01:32:20;;;;;;;38.77;26.73;;;;;;;-1.53;78.22;100572.28;1651534;85;22111;-80
2021/11/18 01:34:49;;;;;;;43.43;24.60;;;;;;;-1.52;78.22;100571.79;1651055;85;21079;-80
2021/11/18 01:37:17;;;;;;;45.70;25.40;;;;;;;-1.53;78.19;100567.00;1651132;85;20951;-80
2021/11/18 01:39:44;;;;;;;35.43;23.93;;;;;;;-1.55;78.23;100562.38;1651090;85;21499;-82
2021/11/18 01:42:12;;;;;;;38.37;23.37;;;;;;;-1.52;78.36;100566.52;1652795;85;21074;-81
2021/11/18 01:44:44;;;;;;;36.80;24.30;;;;;;;-1.52;78.31;100565.20;1680238;85;21097;-80
2021/11/18 01:47:11;;;;;;;46.70;28.17;;;;;;;-1.53;78.27;100556.94;1680337;84;20959;-83
2021/11/18 01:49:40;;;;;;;40.17;24.80;;;;;;;-1.51;78.38;100560.27;1679595;84;21023;-81
2021/11/18 01:52:08;;;;;;;49.67;26.73;;;;;;;-1.50;78.38;100556.66;1692222;84;21056;-82
2021/11/18 01:54:35;;;;;;;37.27;23.87;;;;;;;-1.52;78.28;100555.48;1673160;84;22155;-82
2021/11/18 01:57:06;;;;;;;49.53;25.67;;;;;;;-1.55;78.23;100558.43;1695387;84;21836;-83
2021/11/18 01:59:37;;;;;;;50.40;26.53;;;;;;;-1.56;78.35;100554.12;1672941;84;21049;-78
2021/11/18 02:02:25;;;;;;;41.43;24.80;;;;;;;-1.52;78.40;100554.64;1673089;84;21541;-83
2021/11/18 02:05:25;;;;;;;38.33;24.23;;;;;;;-1.53;78.27;100552.50;1618758;88;21075;-79
2021/11/18 02:08:00;;;;;;;45.27;23.87;;;;;;;-1.57;78.22;100541.91;1685222;84;21496;-78
2021/11/18 02:10:37;;;;;;;37.70;25.77;;;;;;;-1.61;78.22;100541.87;1698176;84;21392;-79
2021/11/18 02:13:05;;;;;;;39.17;24.90;;;;;;;-1.63;78.29;100538.55;1697729;84;21003;-80
2021/11/18 02:15:41;;;;;;;49.00;25.60;;;;;;;-1.66;78.38;100530.95;1698375;84;20995;-79
2021/11/18 02:18:24;;;;;;;38.70;24.60;;;;;;;-1.69;78.47;100540.98;1675417;84;21106;-85
2021/11/18 02:20:58;;;;;;;40.50;24.07;;;;;;;-1.72;78.58;100534.18;1676208;84;20940;-81
2021/11/18 02:23:28;;;;;;;39.18;22.40;;;;;;;-1.71;78.63;100537.16;1676624;84;21062;-84
2021/11/18 02:25:56;;;;;;;44.87;25.47;;;;;;;-1.71;78.66;100538.48;1670904;84;21601;-86
2021/11/18 02:28:25;;;;;;;37.17;24.57;;;;;;;-1.70;78.73;100538.00;1697825;84;21508;-85
2021/11/18 02:30:54;;;;;;;34.50;21.43;;;;;;;-1.71;78.72;100537.16;1671893;84;21580;-81
2021/11/18 02:33:21;;;;;;;39.30;24.60;;;;;;;-1.70;78.70;100534.04;1698266;84;20973;-81
2021/11/18 02:35:48;;;;;;;39.67;23.80;;;;;;;-1.73;78.76;100535.19;1675109;84;21322;-81
2021/11/18 02:38:16;;;;;;;35.13;22.20;;;;;;;-1.73;78.70;100527.77;1698153;84;20944;-81
2021/11/18 02:40:43;;;;;;;42.67;25.40;;;;;;;-1.72;78.87;100526.76;1698334;84;21008;-81
2021/11/18 02:43:17;;;;;;;35.20;22.00;;;;;;;-1.72;78.89;100523.63;1675597;84;21642;-84
2021/11/18 02:45:48;;;;;;;34.53;20.50;;;;;;;-1.71;78.92;100520.51;1697040;84;21654;-83
2021/11/18 02:48:15;;;;;;;40.63;22.90;;;;;;;-1.70;78.89;100518.22;1670222;85;21571;-82
2021/11/18 02:50:45;;;;;;;35.53;20.50;;;;;;;-1.71;78.88;100518.70;1671950;84;20986;-83
2021/11/18 02:53:14;;;;;;;39.37;23.37;;;;;;;-1.72;78.85;100517.05;1679789;85;21532;-83
2021/11/18 02:55:44;;;;;;;44.80;23.63;;;;;;;-1.73;78.87;100511.45;1679757;84;21106;-81
2021/11/18 02:58:11;;;;;;;32.13;22.60;;;;;;;-1.73;78.95;100513.26;1680119;84;21086;-82
2021/11/18 03:00:43;;;;;;;36.97;24.07;;;;;;;-1.72;79.04;100506.49;1680914;84;21114;-83
2021/11/18 03:03:09;;;;;;;38.90;22.90;;;;;;;-1.71;79.00;100504.69;1680427;85;21257;-82
2021/11/18 03:05:36;;;;;;;43.17;22.90;;;;;;;-1.73;79.01;100496.95;1653624;85;21022;-82
2021/11/18 03:08:03;;;;;;;36.47;23.23;;;;;;;-1.75;79.04;100502.85;1652473;85;21071;-85
2021/11/18 03:10:30;;;;;;;41.10;21.97;;;;;;;-1.77;79.09;100504.80;1630446;85;21090;-82
2021/11/18 03:12:58;;;;;;;38.87;22.77;;;;;;;-1.80;79.10;100509.06;1679736;85;21040;-84
2021/11/18 03:15:26;;;;;;;46.03;24.97;;;;;;;-1.82;79.21;100505.73;1652520;85;21552;-84
2021/11/18 03:17:55;;;;;;;33.70;22.57;;;;;;;-1.83;79.26;100506.25;1651779;85;21515;-82
2021/11/18 03:20:25;;;;;;;37.03;22.50;;;;;;;-1.84;79.30;100509.86;1679894;85;21053;-82
2021/11/18 03:22:52;;;;;;;35.93;23.43;;;;;;;-1.85;79.38;100498.97;1651991;85;21023;-83
2021/11/18 03:25:23;;;;;;;35.47;22.23;;;;;;;-1.86;79.46;100501.75;1652733;85;21966;-81
2021/11/18 03:27:50;;;;;;;37.60;22.33;;;;;;;-1.87;79.54;100495.64;1630220;85;21057;-88
2021/11/18 03:30:23;;;;;;;38.20;23.97;;;;;;;-1.86;79.54;100504.38;1651744;85;21054;-87
2021/11/18 03:32:50;;;;;;;38.73;22.30;;;;;;;-1.86;79.52;100503.06;1630060;85;21512;-85
2021/11/18 03:35:19;;;;;;;40.27;23.07;;;;;;;-1.87;79.59;100501.44;1652424;85;20991;-86
2021/11/18 03:37:47;;;;;;;38.33;23.53;;;;;;;-1.84;79.59;100502.44;1679850;85;21787;-85
2021/11/18 03:40:14;;;;;;;43.77;24.57;;;;;;;-1.83;79.49;100498.34;1653727;85;21519;-86
2021/11/18 03:42:42;;;;;;;36.37;20.20;;;;;;;-1.82;79.45;100498.66;1680716;85;20986;-80
2021/11/18 03:45:09;;;;;;;39.70;24.67;;;;;;;-1.82;79.38;100500.47;1630543;85;21277;-80
2021/11/18 03:47:36;;;;;;;38.53;23.97;;;;;;;-1.81;79.43;100502.13;1679795;85;21650;-78
2021/11/18 03:50:05;;;;;;;44.53;24.17;;;;;;;-1.81;79.34;100501.64;1679850;85;22677;-79
2021/11/18 03:52:33;;;;;;;40.73;21.33;;;;;;;-1.79;79.32;100506.28;1647966;84;21580;-79
2021/11/18 03:54:59;;;;;;;38.73;24.40;;;;;;;-1.82;79.28;100496.02;1698086;84;21094;-79
2021/11/18 03:57:25;;;;;;;43.90;24.47;;;;;;;-1.82;79.35;100503.94;1690009;84;21023;-76
2021/11/18 03:59:53;;;;;;;37.43;23.13;;;;;;;-1.82;79.30;100499.14;1682880;84;21583;-76
2021/11/18 04:02:20;;;;;;;41.53;23.63;;;;;;;-1.82;79.31;100496.02;1672516;84;22024;-76
2021/11/18 04:04:51;;;;;;;36.37;22.63;;;;;;;-1.80;79.32;100497.20;1695132;84;21010;-76
2021/11/18 04:07:18;;;;;;;35.57;21.50;;;;;;;-1.79;79.31;100499.70;1696705;84;21559;-77
2021/11/18 04:09:47;;;;;;;40.40;25.50;;;;;;;-1.78;79.31;100496.09;1698240;84;21564;-76
2021/11/18 04:12:15;;;;;;;39.90;23.17;;;;;;;-1.76;79.29;100497.23;1703649;83;21005;-76
2021/11/18 04:14:42;;;;;;;40.27;24.33;;;;;;;-1.72;79.19;100488.52;1723078;83;21199;-77
2021/11/18 04:17:11;;;;;;;35.20;23.00;;;;;;;-1.72;79.04;100487.20;1688121;84;21011;-76
2021/11/18 04:19:37;;;;;;;41.50;24.80;;;;;;;-1.72;79.01;100487.20;1684780;84;21477;-75
2021/11/18 04:22:06;;;;;;;36.90;23.90;;;;;;;-1.75;78.89;100476.48;1688034;84;21142;-76
2021/11/18 04:24:34;;;;;;;40.70;27.40;;;;;;;-1.79;78.95;100469.86;1696915;84;21007;-81
2021/11/18 04:27:01;;;;;;;48.23;25.70;;;;;;;-1.81;79.05;100467.86;1694257;84;21046;-79
2021/11/18 04:29:29;;;;;;;41.23;24.83;;;;;;;-1.82;79.05;100468.34;1683473;85;21449;-79
2021/11/18 04:32:02;;;;;;;39.30;23.47;;;;;;;-1.86;79.00;100467.48;1670681;84;20980;-78
2021/11/18 04:34:28;;;;;;;37.77;23.57;;;;;;;-1.91;79.03;100466.61;1675843;84;21024;-79
2021/11/18 04:36:55;;;;;;;43.30;26.13;;;;;;;-1.95;79.10;100464.43;1673258;85;21087;-78
2021/11/18 04:39:21;;;;;;;40.60;25.40;;;;;;;-1.95;79.25;100468.38;1659794;85;21130;-78
2021/11/18 04:41:48;;;;;;;42.37;24.97;;;;;;;-1.96;79.32;100459.64;1669476;85;21090;-80
2021/11/18 04:44:14;;;;;;;39.80;25.03;;;;;;;-1.96;79.32;100462.28;1690972;84;21431;-81
2021/11/18 04:46:41;;;;;;;38.00;24.87;;;;;;;-1.95;79.45;100453.41;1695983;84;21024;-81
2021/11/18 04:49:07;;;;;;;45.00;25.17;;;;;;;-1.94;79.39;100451.59;1683453;84;21036;-80
2021/11/18 04:51:34;;;;;;;35.60;24.20;;;;;;;-1.96;79.41;100451.73;1667459;85;21194;-81
2021/11/18 04:54:00;;;;;;;39.23;25.13;;;;;;;-1.95;79.42;100452.08;1651996;85;21037;-84
2021/11/18 04:56:28;;;;;;;43.27;23.87;;;;;;;-1.96;79.41;100450.42;1653211;85;20979;-76
2021/11/18 04:58:56;;;;;;;37.10;25.77;;;;;;;-1.94;79.42;100451.11;1680905;84;21529;-84
2021/11/18 05:01:22;;;;;;;40.77;24.80;;;;;;;-1.93;79.35;100449.30;1654439;85;21035;-83
2021/11/18 05:03:51;;;;;;;38.70;23.00;;;;;;;-1.90;79.29;100446.36;1653807;85;22187;-84
2021/11/18 05:06:18;;;;;;;36.87;26.50;;;;;;;-1.88;79.14;100451.00;1680314;84;21042;-84
2021/11/18 05:08:46;;;;;;;39.47;23.77;;;;;;;-1.98;79.12;100453.71;1679901;85;20916;-83
2021/11/18 05:11:13;;;;;;;39.10;26.83;;;;;;;-1.98;79.26;100456.34;1652343;85;21078;-83
2021/11/18 05:13:40;;;;;;;40.77;26.33;;;;;;;-2.00;79.25;100456.97;1679819;85;21121;-83
2021/11/18 05:16:12;;;;;;;35.97;22.10;;;;;;;-1.98;79.32;100455.03;1679857;84;21003;-84
2021/11/18 05:18:39;;;;;;;38.07;23.63;;;;;;;-2.05;79.12;100457.08;1680013;85;20916;-81
2021/11/18 05:21:09;;;;;;;38.50;22.97;;;;;;;-2.28;79.42;100448.79;1680154;85;21062;-81
2021/11/18 05:23:36;;;;;;;38.80;25.83;;;;;;;-2.40;79.74;100449.47;1652295;85;20983;-82
2021/11/18 05:26:03;;;;;;;46.17;26.50;;;;;;;-2.43;80.06;100447.63;1652635;85;21090;-81
2021/11/18 05:28:29;;;;;;;41.77;22.20;;;;;;;-2.53;80.27;100450.32;1679811;85;21096;-79
2021/11/18 05:30:56;;;;;;;41.80;24.13;;;;;;;-2.62;80.47;100452.52;1652256;85;21555;-85
2021/11/18 05:33:27;;;;;;;39.17;25.73;;;;;;;-2.58;80.80;100453.05;1652709;85;21570;-86
2021/11/18 05:35:54;;;;;;;39.93;23.63;;;;;;;-2.49;80.97;100446.41;1682743;85;21497;-83
2021/11/18 05:38:21;;;;;;;40.07;24.17;;;;;;;-2.35;80.92;100447.23;1653314;85;21058;-79
2021/11/18 05:40:49;;;;;;;40.73;24.97;;;;;;;-2.35;80.64;100445.11;1652743;85;21466;-77
2021/11/18 05:43:17;;;;;;;43.73;23.60;;;;;;;-2.35;80.60;100444.59;1679896;85;21029;-78
2021/11/18 05:45:44;;;;;;;35.90;23.57;;;;;;;-2.34;80.51;100452.01;1679392;85;21010;-79
2021/11/18 05:48:15;;;;;;;43.13;24.57;;;;;;;-2.33;80.62;100454.98;1680137;85;20911;-78
2021/11/18 05:50:46;;;;;;;47.63;25.40;;;;;;;-2.32;80.63;100454.84;1680017;85;21570;-77
2021/11/18 05:53:14;;;;;;;37.03;24.40;;;;;;;-2.26;80.59;100450.80;1677971;84;21057;-81
2021/11/18 05:55:41;;;;;;;47.60;24.63;;;;;;;-2.24;80.46;100449.66;1653781;85;21046;-79
2021/11/18 05:58:08;;;;;;;44.47;25.87;;;;;;;-2.21;80.39;100450.66;1654260;85;21664;-80
2021/11/18 06:00:35;;;;;;;44.27;24.07;;;;;;;-2.20;80.30;100458.08;1677914;85;20957;-79
2021/11/18 06:03:02;;;;;;;46.03;26.60;;;;;;;-2.15;80.33;100455.00;1654093;85;21574;-84
2021/11/18 06:05:29;;;;;;;50.83;26.63;;;;;;;-2.12;80.28;100461.31;1652745;85;21308;-83
2021/11/18 06:07:57;;;;;;;40.40;24.43;;;;;;;-2.11;80.16;100461.66;1654032;85;20962;-80
2021/11/18 06:10:26;;;;;;;41.40;24.90;;;;;;;-2.11;80.11;100473.00;1654403;85;21054;-78
2021/11/18 06:12:53;;;;;;;43.63;27.40;;;;;;;-2.08;80.18;100466.62;1653846;85;21026;-80
2021/11/18 06:15:23;;;;;;;47.93;26.07;;;;;;;-2.04;80.18;100470.12;1677992;85;21525;-78
2021/11/18 06:17:49;;;;;;;42.20;25.67;;;;;;;-1.98;80.10;100462.11;1681001;84;21022;-79
2021/11/18 06:20:16;;;;;;;38.60;23.63;;;;;;;-1.96;79.99;100450.91;1667128;85;21048;-80
2021/11/18 06:22:44;;;;;;;35.63;23.93;;;;;;;-1.98;79.85;100455.03;1687340;85;20976;-85
2021/11/18 06:25:16;;;;;;;38.37;25.80;;;;;;;-2.04;79.84;100454.30;1673405;84;21101;-82
2021/11/18 06:27:44;;;;;;;39.43;23.23;;;;;;;-2.04;79.96;100450.84;1645779;86;21050;-84
2021/11/18 06:30:21;;;;;;;38.00;21.03;;;;;;;-2.06;80.02;100448.34;1665583;86;20983;-83
2021/11/18 06:32:47;;;;;;;39.73;21.43;;;;;;;-2.03;80.10;100443.28;1646026;86;21562;-82
2021/11/18 06:35:15;;;;;;;45.37;25.10;;;;;;;-2.05;80.06;100443.41;1661633;86;21051;-82
2021/11/18 06:37:42;;;;;;;42.63;27.20;;;;;;;-2.06;80.04;100444.39;1667428;86;21578;-78
2021/11/18 06:40:11;;;;;;;39.93;25.57;;;;;;;-2.05;80.17;100441.27;1644180;86;21591;-79
2021/11/18 06:42:40;;;;;;;45.37;26.43;;;;;;;-2.04;80.21;100435.86;1643741;86;21404;-79
2021/11/18 06:45:30;;;;;;;41.70;26.40;;;;;;;-2.05;80.19;100436.83;1660810;86;21021;-80
2021/11/18 06:47:58;;;;;;;44.20;31.57;;;;;;;-2.08;80.29;100429.23;1664385;86;21479;-79
2021/11/18 06:50:24;;;;;;;42.23;28.77;;;;;;;-2.18;80.45;100431.11;1667912;86;20919;-78
2021/11/18 06:52:53;;;;;;;49.43;28.57;;;;;;;-2.15;80.67;100437.88;1653938;85;21042;-80
2021/11/18 06:55:20;;;;;;;43.40;25.50;;;;;;;-2.09;80.81;100437.28;1657268;85;21198;-83
2021/11/18 06:57:49;;;;;;;36.70;23.33;;;;;;;-2.05;80.70;100442.10;1723488;83;21021;-82
2021/11/18 07:00:17;;;;;;;51.60;29.00;;;;;;;-2.03;80.74;100440.16;1678716;83;21007;-83
2021/11/18 07:02:44;;;;;;;41.10;30.17;;;;;;;-2.02;80.73;100439.19;1702233;83;21054;-81
2021/11/18 07:05:13;;;;;;;40.23;24.40;;;;;;;-1.96;80.77;100429.81;1697573;84;20982;-79
2021/11/18 07:07:42;;;;;;;51.77;28.67;;;;;;;-1.90;80.75;100439.77;1639406;87;21395;-79
2021/11/18 07:10:09;;;;;;;42.03;26.73;;;;;;;-1.85;80.70;100437.02;1664883;85;21066;-79
2021/11/18 07:12:38;;;;;;;39.33;23.57;;;;;;;-1.78;80.66;100430.17;1663179;85;20978;-81
2021/11/18 07:15:06;;;;;;;51.23;27.67;;;;;;;-1.73;80.54;100432.34;1677657;84;21562;-82
2021/11/18 07:17:35;;;;;;;48.20;29.77;;;;;;;-1.73;80.42;100428.39;1683787;84;21008;-82
2021/11/18 07:20:05;;;;;;;52.90;31.23;;;;;;;-1.69;80.43;100434.19;1684222;85;21517;-81
2021/11/18 07:22:31;;;;;;;47.20;29.10;;;;;;;-1.62;80.45;100426.81;1641534;85;21529;-81
2021/11/18 07:25:00;;;;;;;49.67;32.70;;;;;;;-1.62;80.25;100432.58;1641420;85;21020;-80
2021/11/18 07:27:26;;;;;;;56.83;32.43;;;;;;;-1.61;80.33;100426.33;1688641;83;21555;-84
2021/11/18 07:29:54;;;;;;;46.50;29.67;;;;;;;-1.58;80.46;100426.84;1681333;84;21063;-83
2021/11/18 07:32:20;;;;;;;51.33;32.83;;;;;;;-1.53;80.50;100428.52;1677550;84;22020;-80
2021/11/18 07:34:47;;;;;;;52.03;30.47;;;;;;;-1.49;80.61;100429.90;1669195;85;20947;-79
2021/11/18 07:37:18;;;;;;;54.50;30.17;;;;;;;-1.44;80.56;100426.28;1671306;84;21100;-79
2021/11/18 07:39:47;;;;;;;51.27;29.03;;;;;;;-1.32;80.57;100434.29;1692656;84;20980;-80
2021/11/18 07:42:14;;;;;;;49.23;34.07;;;;;;;-1.26;80.54;100438.61;1653845;85;21046;-81
2021/11/18 07:45:01;;;;;;;50.07;32.67;;;;;;;-1.18;80.53;100432.05;1683123;84;21048;-78
2021/11/18 07:47:46;;;;;;;51.53;33.53;;;;;;;-1.07;80.39;100435.76;1662975;85;21127;-81
2021/11/18 07:50:14;;;;;;;52.30;33.53;;;;;;;-1.05;80.12;100430.64;1723179;83;21566;-82
2021/11/18 07:52:41;;;;;;;50.03;27.93;;;;;;;-1.02;80.06;100429.52;1713827;83;22224;-79
2021/11/18 07:55:09;;;;;;;52.33;33.97;;;;;;;-0.94;80.16;100430.87;1681232;85;21057;-82
2021/11/18 07:57:37;;;;;;;64.67;33.23;;;;;;;-0.91;79.86;100419.98;1682379;85;21007;-80
2021/11/18 08:00:08;;;;;;;123.27;41.63;;;;;;;-0.83;79.94;100419.20;1724474;83;21575;-81
2021/11/18 08:02:36;;;;;;;49.15;31.27;;;;;;;-0.72;79.89;100424.22;1679120;83;20979;-79
2021/11/18 08:05:05;;;;;;;51.60;32.13;;;;;;;-0.65;79.73;100418.61;1660394;86;21091;-77
2021/11/18 08:07:32;;;;;;;59.27;32.30;;;;;;;-0.65;79.37;100421.25;1634548;86;21131;-74
2021/11/18 08:09:59;;;;;;;53.17;35.73;;;;;;;-0.63;79.40;100416.16;1683084;85;21200;-78
2021/11/18 08:12:26;;;;;;;59.37;34.00;;;;;;;-0.59;79.32;100416.66;1683090;85;20985;-77
2021/11/18 08:14:52;;;;;;;48.77;31.37;;;;;;;-0.53;79.47;100411.55;1652846;85;21031;-78
2021/11/18 08:17:19;;;;;;;49.33;32.13;;;;;;;-0.44;79.17;100412.42;1681153;83;21037;-77
2021/11/18 08:19:46;;;;;;;58.07;36.60;;;;;;;-0.44;79.08;100407.13;1676365;84;21130;-78
2021/11/18 08:22:14;;;;;;;57.27;32.90;;;;;;;-0.33;79.24;100412.58;1702051;83;21098;-78
2021/11/18 08:24:43;;;;;;;49.63;31.20;;;;;;;-0.26;78.80;100416.25;1688900;83;21065;-78
2021/11/18 08:27:10;;;;;;;62.33;35.70;;;;;;;-0.21;78.71;100414.78;1682309;84;21036;-78
2021/11/18 08:29:37;;;;;;;49.07;29.03;;;;;;;-0.13;78.69;100417.42;1682480;84;20988;-80
2021/11/18 08:32:05;;;;;;;66.23;34.30;;;;;;;-0.04;78.42;100411.16;1656950;85;21055;-78
2021/11/18 08:34:36;;;;;;;63.50;34.92;;;;;;;0.06;78.45;100418.09;1634253;85;21788;-82
2021/11/18 08:37:05;;;;;;;61.60;37.30;;;;;;;0.17;78.31;100404.56;1634316;83;21089;-79
2021/11/18 08:39:34;;;;;;;56.67;35.50;;;;;;;0.22;77.75;100409.69;1682377;85;21046;-76
2021/11/18 08:42:03;;;;;;;52.67;33.63;;;;;;;0.25;77.66;100409.84;1682552;84;21121;-80
2021/11/18 08:44:31;;;;;;;65.93;36.07;;;;;;;0.28;77.46;100409.53;1682393;85;21066;-79
2021/11/18 08:46:58;;;;;;;56.23;34.53;;;;;;;0.29;77.62;100411.16;1657055;85;21202;-80
2021/11/18 08:49:27;;;;;;;52.53;34.53;;;;;;;0.34;77.72;100406.20;1656883;85;21043;-82
2021/11/18 08:51:54;;;;;;;52.03;33.37;;;;;;;0.47;77.77;100403.89;1657012;85;21629;-78
2021/11/18 08:54:26;;;;;;;46.50;29.50;;;;;;;0.60;77.62;100403.36;1633077;85;21050;-78
2021/11/18 08:56:53;;;;;;;53.10;36.53;;;;;;;0.73;77.52;100404.49;1681426;85;21490;-78
2021/11/18 08:59:22;;;;;;;64.00;36.90;;;;;;;0.82;77.12;100396.85;1681170;85;21310;-79
2021/11/18 09:01:54;;;;;;;48.33;32.07;;;;;;;0.83;76.67;100397.19;1681737;85;20971;-81
2021/11/18 09:04:22;;;;;;;59.30;33.50;;;;;;;0.85;76.84;100401.83;1655342;85;21105;-79
2021/11/18 09:06:49;;;;;;;44.60;29.20;;;;;;;0.90;76.73;100385.92;1682460;85;20955;-79
2021/11/18 09:09:18;;;;;;;48.13;32.37;;;;;;;0.95;76.56;100385.75;1656700;85;21031;-78
2021/11/18 09:11:47;;;;;;;58.03;30.30;;;;;;;1.01;76.42;100382.39;1682572;85;21554;-79
2021/11/18 09:14:15;;;;;;;42.03;29.13;;;;;;;1.03;76.40;100384.39;1650120;85;21041;-79
2021/11/18 09:16:41;;;;;;;44.30;29.77;;;;;;;1.16;76.32;100378.53;1664476;84;21592;-79
2021/11/18 09:19:16;;;;;;;44.27;27.33;;;;;;;1.25;76.30;100377.48;1648875;85;21046;-80
2021/11/18 09:21:44;;;;;;;41.50;28.57;;;;;;;1.33;76.16;100373.50;1679787;85;21058;-79
2021/11/18 09:24:25;;;;;;;39.50;25.70;;;;;;;1.43;76.30;100378.58;1679959;85;21170;-81
2021/11/18 09:26:56;;;;;;;42.83;29.40;;;;;;;1.56;75.98;100371.70;1680661;84;21538;-79
2021/11/18 09:29:22;;;;;;;42.53;27.63;;;;;;;1.65;75.80;100372.48;1686725;83;20946;-79
2021/11/18 09:32:09;;;;;;;45.17;27.83;;;;;;;1.73;75.51;100381.20;1677293;85;21078;-80
2021/11/18 09:34:38;;;;;;;44.97;27.77;;;;;;;1.82;75.67;100378.02;1680354;85;21511;-80
2021/11/18 09:37:04;;;;;;;40.93;28.60;;;;;;;1.92;75.57;100372.48;1652363;85;22301;-78
2021/11/18 09:39:30;;;;;;;44.57;28.63;;;;;;;2.00;75.16;100356.48;1680292;85;20958;-79
2021/11/18 09:42:07;;;;;;;36.55;26.00;;;;;;;2.08;75.24;100340.49;1694999;83;21043;-78
2021/11/18 09:44:57;;;;;;;40.35;27.50;;;;;;;2.21;75.06;100338.05;1660857;85;21005;-78
2021/11/18 09:47:58;;;;;;;48.42;28.67;;;;;;;2.25;74.22;100343.84;1674019;85;21132;-79
2021/11/18 09:50:57;;;;;;;39.67;27.13;;;;;;;2.26;74.30;100340.16;1679995;85;21590;-81
2021/11/18 09:53:56;;;;;;;41.58;27.85;;;;;;;2.31;74.28;100335.97;1675232;84;21057;-79
2021/11/18 09:56:42;;;;;;;43.68;29.35;;;;;;;2.42;74.33;100335.53;1653925;85;20958;-79
2021/11/18 09:59:34;;;;;;;39.15;25.68;;;;;;;2.60;74.31;100337.33;1654130;85;21095;-79
2021/11/18 10:02:17;;;;;;;42.67;28.98;;;;;;;2.78;73.71;100328.19;1638971;85;21037;-79
2021/11/18 10:05:02;;;;;;;40.95;27.27;;;;;;;2.80;73.27;100320.34;1653961;85;21101;-79
2021/11/18 10:07:49;;;;;;;42.62;26.97;;;;;;;2.89;73.09;100321.89;1677953;85;21548;-81
2021/11/18 10:10:29;;;;;;;41.63;28.20;;;;;;;2.93;72.93;100311.70;1651970;85;21067;-77
2021/11/18 10:13:36;;;;;;;40.67;27.67;;;;;;;3.00;72.84;100312.63;1654013;85;21605;-77
2021/11/18 10:16:19;;;;;;;42.67;28.00;;;;;;;3.08;72.55;100305.88;1677973;85;20947;-79
2021/11/18 10:18:52;;;;;;;39.30;26.70;;;;;;;3.17;72.53;100303.42;1678026;85;21605;-79
2021/11/18 10:21:23;;;;;;;45.85;30.45;;;;;;;3.26;71.83;100291.66;1677863;85;21035;-70
2021/11/18 10:23:57;;;;;;;41.20;26.93;;;;;;;3.26;71.57;100285.55;1671236;85;21110;-81
2021/11/18 10:26:25;;;;;;;;;;;;;;;3.27;71.49;100282.69;1679797;85;21051;-80
2021/11/18 10:29:13;;;;;;;43.83;28.87;;;;;;;3.26;71.54;100278.38;1689965;84;20186;-79
2021/11/18 10:31:59;;;;;;;40.20;29.10;;;;;;;3.34;71.69;100273.47;1712354;83;21165;-78
2021/11/18 10:34:46;;;;;;;42.85;30.62;;;;;;;3.43;71.58;100267.02;1690355;83;20971;-76
2021/11/18 10:37:20;;;;;;;43.60;28.12;;;;;;;3.52;71.30;100268.53;1671124;84;21029;-79
2021/11/18 10:40:09;;;;;;;46.85;31.25;;;;;;;3.57;71.07;100270.11;1677325;84;20996;-77
2021/11/18 10:42:44;;;;;;;46.37;28.77;;;;;;;3.63;71.10;100268.03;1677115;84;21045;-77
2021/11/18 10:45:39;;;;;;;43.48;30.23;;;;;;;3.72;70.85;100266.88;1652293;85;21801;-76
2021/11/18 10:48:26;;;;;;;38.08;28.32;;;;;;;3.79;70.79;100262.42;1652094;84;21602;-77
2021/11/18 10:51:10;;;;;;;47.17;29.63;;;;;;;3.93;70.44;100260.72;1662449;85;21527;-81
2021/11/18 10:53:57;;;;;;;42.95;29.85;;;;;;;3.98;69.90;100263.59;1657933;85;21571;-81
2021/11/18 10:56:46;;;;;;;35.58;23.83;;;;;;;4.02;69.71;100265.39;1670876;84;21023;-84
2021/11/18 10:59:33;;;;;;;36.13;28.02;;;;;;;4.03;69.35;100253.73;1686908;84;21307;-80
2021/11/18 11:02:00;;;;;;;38.80;29.57;;;;;;;4.01;69.37;100248.59;1698633;84;20968;-81
2021/11/18 11:04:44;;;;;;;42.40;29.40;;;;;;;4.01;69.31;100247.77;1653435;84;21027;-85
2021/11/18 11:07:11;;;;;;;39.88;30.60;;;;;;;4.02;69.43;100251.58;1697241;84;21063;-80
2021/11/18 11:09:46;;;;;;;36.40;28.15;;;;;;;4.09;69.53;100245.77;1697938;84;21055;-73
2021/11/18 11:12:32;;;;;;;45.25;28.25;;;;;;;4.12;69.34;100242.75;1695214;84;21121;-78
2021/11/18 11:15:42;;;;;;;37.42;23.90;;;;;;;4.13;69.09;100243.03;1674781;84;21019;-79
2021/11/18 11:18:53;;;;;;;40.25;28.98;;;;;;;4.13;68.91;100239.55;1672187;85;20995;-75
2021/11/18 11:21:28;;;;;;;38.73;28.65;;;;;;;4.06;69.21;100229.38;1684247;85;21509;-77
2021/11/18 11:24:43;;;;;;;42.10;27.42;;;;;;;4.06;69.45;100229.38;1696171;84;21090;-77
2021/11/18 11:27:45;;;;;;;44.15;29.30;;;;;;;4.08;69.41;100225.49;1677757;84;21212;-73
2021/11/18 11:30:22;;;;;;;41.85;28.20;;;;;;;4.10;69.57;100217.33;1695301;84;21048;-72